METAR stanice u blizini

 

LYBE - Beograd / Surčin, Srbija
Ažurirano: 05/08/2020 00:00
Partly Cloudy
Partly Cloudy
 Pravac vetra varies
Vetar: varies 7 km/h
Temperatura: 25°C
Tačka rose: 17°C
Vlažnost: 61%
Pritisak: 1008 hPa
Oblaci: Partly Cloudy
Vidljivost: 10 km
Cloud details: Partly Cloudy 1219 m
2020/08/04 22:00 LYBE 042200Z VRB04KT 9999 SCT040TCU 25/17 Q1008 RETS NOSIG
LYBT - Beograd / Batajnica, Srbija
Ažurirano: 05/08/2020 00:00
Thunderstorm, Few clouds
Thunderstorm, Few clouds
 Pravac vetra varies
Vetar: varies 9 km/h
Temperatura: 22°C
Tačka rose: 19°C
Vlažnost: 83%
Pritisak: 1007 hPa
Pregled: Thunderstorm
Oblaci: Few Clouds
Vidljivost: 10 km
Cloud details: Few Clouds 1006 m
2020/08/04 22:00 LYBT 042200Z VRB05KT 9999 TS FEW033CB 22/19 Q1007 RESHRA BECMG NSW NSC
LYVR - Vršac, Srbija
Ažurirano: 05/08/2020 00:00
Vedro
Vedro
 Pravac vetra JJI
Vetar: JJI 28 km/h, Maks.: 76 km/h
Temperatura: 28°C
Heat Index: 28°C
Tačka rose: 14°C
Vlažnost: 42%
Pritisak: 1008 hPa
Pregled: Vedro
Vidljivost: greater than 10 km
2020/08/04 22:00 LYVR 042200Z AUTO 15015G41KT CAVOK 28/14 Q1008
 
LYKV - Lađevci, Srbija
Ažurirano: 05/08/2020 00:00
Few Clouds
Few Clouds
 Pravac vetra JI
Vetar: JI 19 km/h
Temperatura: 25°C
Tačka rose: 16°C
Vlažnost: 57%
Pritisak: 1008 hPa
Oblaci: Few Clouds
Vidljivost: 10 km
Cloud details: Few Clouds 1219 m
2020/08/04 22:00 LYKV 042200Z 14010KT 100V160 9999 FEW040 25/16 Q1008 NOSIG
LYNI - Niš, Srbija
Ažurirano: 05/08/2020 00:00
Vedro
Vedro
 Pravac vetra JJI
Vetar: JJI 7 km/h
Temperatura: 20°C
Tačka rose: 19°C
Vlažnost: 94%
Pritisak: 1011 hPa
Pregled: Vedro
Vidljivost: greater than 10 km
2020/08/04 22:00 LYNI 042200Z 15004KT 110V200 CAVOK 20/19 Q1011 NOSIG
BKPR - Priština, Srbija
Ažurirano: 05/08/2020 00:30
Few Clouds
Few Clouds
 Pravac vetra J
Vetar: J 11 km/h
Temperatura: 20°C
Tačka rose: 15°C
Vlažnost: 73%
Pritisak: 1011 hPa
Oblaci: Few Clouds
Vidljivost: 10 km
Cloud details: Few Clouds 2743 m
2020/08/04 22:30 BKPR 042230Z 19006KT 9999 FEW090 20/15 Q1011 NOSIG
 
LHPP - Pecs / Pogany, Hungary
Ažurirano: 04/08/2020 19:45
NOT Current
Slaba kiša, Showers, Delimično oblačno
Slaba kiša, Showers, Delimično oblačno
 Pravac vetra S
Vetar: S 11 km/h
Temperatura: 19°C
Tačka rose: 18°C
Vlažnost: 94%
Pritisak: 1007 hPa
Pregled: Slaba kiša, Showers
Oblaci: Partly Cloudy
Vidljivost: 10 km
Cloud details: Few Clouds 183 m
Partly Cloudy 1006 m
2020/08/04 17:45 LHPP 041745Z 36006KT 9999 -SHRA FEW006 SCT033CB 19/18 Q1007 RESHRA
LHUD - Szeged, Hungary
Ažurirano: 04/07/2019 01:45
NOT Current
Vedro
Vedro
 Pravac vetra S
Vetar: S 7 km/h
Temperatura: 18°C
Tačka rose: 13°C
Vlažnost: 73%
Pritisak: 1019 hPa
Pregled: Vedro
Vidljivost: greater than 10 km
2019/07/03 23:45 LHUD 032345Z 35004KT CAVOK 18/13 Q1019
LRTR - Timisoara, Romania
Ažurirano: 05/08/2020 00:00
Slaba kiša, Showers, Few clouds
Slaba kiša, Showers, Few clouds
 Pravac vetra S
Vetar: S 24 km/h
Temperatura: 21°C
Tačka rose: 20°C
Vlažnost: 94%
Pritisak: 1009 hPa
Pregled: Slaba kiša, Showers
Oblaci: Few Clouds
Vidljivost: 10 km
Cloud details: Few Clouds 1524 m
2020/08/04 22:00 LRTR 042200Z 01013KT 9999 -SHRA FEW050CB 21/20 Q1009 RESHRA WS RWY29 NOSIG
 
LRCV - Craiova, Romania
Ažurirano: 05/08/2020 00:00
Vedro
Vedro
 Pravac vetra ISI
Vetar: ISI 19 km/h
Temperatura: 23°C
Tačka rose: 14°C
Vlažnost: 57%
Pritisak: 1010 hPa
Pregled: Vedro
Vidljivost: greater than 10 km
2020/08/04 22:00 LRCV 042200Z 06010KT CAVOK 23/14 Q1010
LBSF - Sofia, Bulgaria
Ažurirano: 05/08/2020 00:00
Vedro
Vedro
 Pravac vetra JI
Vetar: JI 9 km/h
Temperatura: 20°C
Tačka rose: 14°C
Vlažnost: 69%
Pritisak: 1012 hPa
Pregled: Vedro
Vidljivost: greater than 10 km
2020/08/04 22:00 LBSF 042200Z 14005KT 110V170 CAVOK 20/14 Q1012 NOSIG
LWSK - Skoplje, Makedonija
Ažurirano: 05/08/2020 00:30
Vedro
Vedro
 Pravac vetra calm
Vetar: Tišina
Temperatura: 20°C
Tačka rose: 19°C
Vlažnost: 94%
Pritisak: 1010 hPa
Pregled: Vedro
Vidljivost: greater than 10 km
2020/08/04 22:30 LWSK 042230Z 00000KT CAVOK 20/19 Q1010 NOSIG
 
LYPG - Podgorica, Crna Gora
Ažurirano: 05/08/2020 00:00
Light thunderstorm, Padavine, Delimično oblačno
Light thunderstorm, Padavine, Delimično oblačno
 Pravac vetra JI
Vetar: JI 28 km/h
Temperatura: 26°C
Tačka rose: 19°C
Vlažnost: 65%
Pritisak: 1005 hPa
Pregled: Light thunderstorm, Padavine
Oblaci: Partly Cloudy
Vidljivost: 10 km
Cloud details: Few Clouds 914 m
Partly Cloudy 1006 m
2020/08/04 22:00 LYPG 042200Z 13015KT 9999 -TSRA FEW030CB SCT033 26/19 Q1005 BECMG 3000 TSRA SCT030CB SCT040
LQSA - Sarajevo, Bosna i Hercegovina
Ažurirano: 05/08/2020 00:00
Thunderstorm rain, Pretežno oblačno
Thunderstorm rain, Pretežno oblačno
 Pravac vetra JI
Vetar: JI 6 km/h
Temperatura: 16°C
Tačka rose: 16°C
Vlažnost: 100%
Pritisak: 1011 hPa
Pregled: Thunderstorm Rain
Oblaci: Mostly Cloudy
Vidljivost: 6 km
Cloud details: Few Clouds 823 m
Mostly Cloudy 1128 m
2020/08/04 22:00 LQSA 042200Z 13003KT 100V170 6000 TSRA FEW027CB BKN037 16/16 Q1011
LDOS - Osijek, Hrvatksa
Ažurirano: 05/08/2020 00:00
Light thunderstorm, Padavine, Oblačno
Light thunderstorm, Padavine, Oblačno
 Pravac vetra varies
Vetar: varies 11 km/h
Temperatura: 19°C
Tačka rose: 18°C
Vlažnost: 94%
Pritisak: 1011 hPa
Pregled: Light thunderstorm, Padavine
Oblaci: Oblačno
Vidljivost: 10 km
Cloud details: Few Clouds 610 m
Few Clouds 823 m
Oblačno 1006 m
2020/08/04 22:00 LDOS 042200Z VRB06KT 9999 -TSRA FEW020 FEW027CB OVC033 19/18 Q1011 RESHRA